ADDS METAR Data INFO
IDs: Format: Raw Decoded Include TAF

Data at: 0146 UTC 17 Oct 2017

KLKU 170135Z AUTO 00000KT 10SM CLR 05/03 A3023 RMK AO2
KLKU 170115Z AUTO 00000KT 10SM CLR 06/04 A3022 RMK AO2
KLKU 170055Z AUTO 00000KT 10SM CLR 07/04 A3021 RMK AO2
KLKU 170035Z AUTO 00000KT 10SM CLR 08/04 A3021 RMK AO2
KLKU 170015Z AUTO 00000KT 10SM CLR 12/03 A3020 RMK AO2
KLKU 162355Z AUTO 35003KT 10SM CLR 12/03 A3019 RMK AO2
KLKU 162335Z AUTO 00000KT 10SM CLR 11/04 A3018 RMK AO2
KLKU 162315Z AUTO 00000KT 10SM CLR 10/06 A3016 RMK AO2
KLKU 162255Z AUTO 00000KT 10SM CLR 13/04 A3016 RMK AO2
KLKU 162235Z AUTO 00000KT 10SM CLR 14/04 A3015 RMK AO2
KLKU 162215Z AUTO 35003KT 10SM CLR 16/04 A3014 RMK AO2
KLKU 162155Z AUTO 34007KT 10SM CLR 16/03 A3013 RMK AO2
KLKU 162135Z AUTO 33008G15KT 10SM CLR 17/03 A3013 RMK AO2
KLKU 162115Z AUTO 31011G16KT 10SM CLR 17/03 A3012 RMK AO2
KLKU 162055Z AUTO 32012G19KT 290V350 10SM CLR 17/03 A3012 RMK AO2
KLKU 162035Z AUTO 35008G19KT 310V010 10SM SCT060 17/04 A3012 RMK AO2
KLKU 162015Z AUTO 30008G17KT 10SM SCT060 17/04 A3013 RMK AO2
KLKU 161955Z AUTO 32012G16KT 10SM OVC060 17/05 A3012 RMK AO2
KLKU 161935Z AUTO 35012G16KT 10SM BKN060 17/05 A3012 RMK AO2
KLKU 161915Z AUTO 31010G14KT 10SM CLR 18/05 A3011 RMK AO2
KLKU 161855Z AUTO 35011KT 10SM CLR 17/06 A3011 RMK AO2
KLKU 161835Z AUTO 33006G19KT 10SM CLR 17/06 A3011 RMK AO2
KLKU 161815Z AUTO 31013G18KT 290V350 10SM CLR 17/07 A3009 RMK AO2
KLKU 161755Z AUTO 33012G17KT 10SM SCT046 17/07 A3010 RMK AO2
KLKU 161735Z AUTO 35011G15KT 10SM SCT046 SCT050 18/08 A3010 RMK AO2
KLKU 161715Z AUTO 02009G15KT 10SM BKN049 17/08 A3010 RMK AO2
KLKU 161655Z AUTO 35008G17KT 10SM OVC049 17/08 A3011 RMK AO2
KLKU 161635Z AUTO 36007KT 10SM BKN049 17/08 A3011 RMK AO2
KLKU 161615Z AUTO 34010G20KT 10SM SCT049 17/07 A3010 RMK AO2
KLKU 161555Z AUTO 35011G15KT 300V020 10SM CLR 17/08 A3010 RMK AO2
KLKU 161535Z AUTO 34010G16KT 10SM CLR 17/08 A3009 RMK AO2
KLKU 161515Z AUTO 32010KT 10SM SCT050 17/11 A3009 RMK AO2
KLKU 161455Z AUTO 33004KT 10SM SCT050 16/11 A3009 RMK AO2
KLKU 161435Z AUTO 33006KT 10SM SCT050 15/11 A3008 RMK AO2
KLKU 161415Z AUTO 31004KT 10SM SCT050 15/12 A3008 RMK AO2
KLKU 161355Z AUTO 35003KT 10SM SCT050 15/12 A3008 RMK AO2
KLKU 161335Z AUTO 31004KT 10SM BKN050 15/12 A3008 RMK AO2
KLKU 161315Z AUTO 00000KT 10SM BKN050 15/12 A3007 RMK AO2
KLKU 161255Z AUTO 00000KT 10SM OVC050 15/13 A3007 RMK AO2
KLKU 161235Z AUTO 00000KT 10SM BKN050 15/13 A3007 RMK AO2
KLKU 161215Z AUTO 00000KT 10SM SCT044 14/13 A3004 RMK AO2
KLKU 161155Z AUTO 00000KT 10SM OVC044 15/13 A3004 RMK AO2
KLKU 161135Z AUTO 00000KT 10SM -RA OVC044 15/13 A3004 RMK AO2
KLKU 161115Z AUTO 00000KT 10SM -RA SCT036 OVC044 15/13 A3002 RMK AO2
KLKU 161055Z AUTO 34003KT 10SM SCT034 BKN044 OVC095 15/13 A3001 RMK AO2 P0002
KLKU 161035Z AUTO 02003KT 10SM -RA SCT009 SCT034 OVC095 16/14 A2999 RMK AO2 P0002
KLKU 161015Z AUTO 03003KT 10SM RA SCT034 BKN042 OVC095 16/14 A2999 RMK AO2 P0001
KLKU 160955Z AUTO 36003KT 10SM -RA OVC040 16/14 A2999 RMK AO2 P0004
KLKU 160935Z AUTO 36004KT 10SM RA SCT008 SCT013 OVC038 16/14 A2999 RMK AO2 P0002
KLKU 160915Z AUTO 01005G08KT 7SM RA SCT007 BKN015 OVC020 16/15 A2998 RMK AO2
KLKU 160855Z AUTO 03009KT 000V060 7SM +RA BKN007 BKN015 OVC024 17/16 A2996 RMK AO2 P0005
KLKU 160835Z AUTO 36007KT 7SM RA SCT013 BKN021 OVC026 18/16 A2995 RMK AO2 P0001
KLKU 160815Z AUTO 36007KT 10SM -RA SCT011 BKN020 OVC040 19/16 A2995 RMK AO2
KLKU 160755Z AUTO 35009G15KT 10SM BKN011 BKN018 OVC037 19/17 A2994 RMK AO2
KLKU 160735Z AUTO 36005KT 10SM SCT011 BKN016 OVC034 20/17 A2993 RMK AO2
KLKU 160715Z AUTO 34008KT 10SM SCT017 SCT021 BKN035 21/17 A2993 RMK AO2
KLKU 160655Z AUTO 29005KT 10SM SCT024 BKN035 BKN100 21/18 A2992 RMK AO2
KLKU 160635Z AUTO 00000KT 10SM SCT024 BKN029 OVC055 21/18 A2992 RMK AO2
KLKU 160615Z AUTO 29003KT 10SM BKN055 OVC090 21/18 A2992 RMK AO2
KLKU 160555Z AUTO 25004KT 10SM BKN055 OVC090 21/18 A2992 RMK AO2
KLKU 160535Z AUTO 24003KT 10SM SCT055 OVC090 21/18 A2991 RMK AO2
KLKU 160515Z AUTO 23003KT 10SM OVC080 21/18 A2992 RMK AO2
KLKU 160455Z AUTO 20004KT 10SM OVC080 21/18 A2991 RMK AO2
KLKU 160435Z AUTO 20004KT 10SM BKN080 BKN100 21/18 A2991 RMK AO2
KLKU 160415Z AUTO 20003KT 10SM SCT080 BKN110 21/18 A2991 RMK AO2
KLKU 160355Z AUTO 21003KT 10SM SCT080 SCT110 21/18 A2991 RMK AO2
KLKU 160335Z AUTO 22003KT 10SM SCT120 21/18 A2991 RMK AO2
KLKU 160315Z AUTO 00000KT 10SM CLR 21/17 A2991 RMK AO2
KLKU 160255Z AUTO 00000KT 10SM CLR 21/17 A2991 RMK AO2
KLKU 160235Z AUTO 20004KT 10SM CLR 21/17 A2991 RMK AO2
KLKU 160215Z AUTO 20004KT 10SM CLR 21/17 A2992 RMK AO2
KLKU 160155Z AUTO 23003KT 10SM CLR 21/17 A2992 RMK AO2
KLKU 160135Z AUTO 21004KT 10SM CLR 21/17 A2992 RMK AO2
KLKU 160115Z AUTO 21003KT 10SM CLR 21/17 A2992 RMK AO2
KLKU 160055Z AUTO 20003KT 10SM CLR 22/18 A2992 RMK AO2
KLKU 160035Z AUTO 20004KT 10SM CLR 22/18 A2992 RMK AO2
KLKU 160015Z AUTO 19004KT 10SM CLR 22/18 A2992 RMK AO2
KLKU 152355Z AUTO 19006KT 10SM CLR 22/18 A2992 RMK AO2
KLKU 152335Z AUTO 19004KT 10SM CLR 22/18 A2992 RMK AO2
KLKU 152315Z AUTO 20003KT 10SM CLR 22/18 A2992 RMK AO2
KLKU 152255Z AUTO 19004KT 10SM CLR 23/18 A2992 RMK AO2
KLKU 152235Z AUTO 19004KT 10SM CLR 23/18 A2992 RMK AO2
KLKU 152215Z AUTO 18004KT 10SM CLR 23/18 A2992 RMK AO2
KLKU 152155Z AUTO 19005KT 10SM CLR 24/18 A2993 RMK AO2
KLKU 152135Z AUTO 19005KT 10SM CLR 25/18 A2993 RMK AO2
KLKU 152115Z AUTO 19007KT 10SM CLR 26/18 A2993 RMK AO2
KLKU 152055Z AUTO 20005KT 10SM CLR 26/18 A2994 RMK AO2
KLKU 152035Z AUTO 22003KT 10SM CLR 26/17 A2994 RMK AO2
KLKU 152015Z AUTO 22006KT 10SM CLR 26/17 A2994 RMK AO2
KLKU 151955Z AUTO 20007KT 180V250 10SM CLR 26/17 A2995 RMK AO2
KLKU 151935Z AUTO 24006KT 10SM CLR 26/17 A2995 RMK AO2
KLKU 151915Z AUTO 21008G15KT 180V270 10SM CLR 26/17 A2996 RMK AO2
KLKU 151855Z AUTO 24008KT 200V270 10SM CLR 26/17 A2997 RMK AO2
KLKU 151835Z AUTO 22004KT 10SM CLR 26/18 A2997 RMK AO2
KLKU 151815Z AUTO 19009G14KT 170V250 10SM CLR 25/18 A2998 RMK AO2
KLKU 151755Z AUTO 22009G15KT 170V250 10SM CLR 24/18 A2999 RMK AO2
KLKU 151735Z AUTO 21007G19KT 10SM CLR 24/18 A3001 RMK AO2
KLKU 151715Z AUTO 22008G15KT 200V270 10SM SCT018 23/18 A3002 RMK AO2
KLKU 151655Z AUTO 21007G15KT 170V230 10SM SCT016 23/18 A3004 RMK AO2
KLKU 151635Z AUTO 22010G18KT 200V260 10SM BKN016 22/17 A3005 RMK AO2
KLKU 151615Z AUTO 22008KT 180V240 10SM OVC014 21/18 A3006 RMK AO2
KLKU 151555Z AUTO 21008KT 190V250 10SM OVC012 21/18 A3007 RMK AO2
KLKU 151535Z AUTO 21007KT 180V260 10SM OVC012 20/18 A3007 RMK AO2
KLKU 151515Z AUTO 22008KT 180V250 10SM OVC010 20/18 A3008 RMK AO2
KLKU 151455Z AUTO 19006KT 10SM OVC008 19/17 A3009 RMK AO2 P0001
KLKU 151435Z AUTO 22007KT 200V260 7SM OVC008 19/17 A3010 RMK AO2 P0001
KLKU 151415Z AUTO 21006KT 10SM OVC008 19/18 A3011 RMK AO2 P0001
KLKU 151355Z AUTO 19005KT 5SM BR OVC008 18/18 A3011 RMK AO2